.
WxDataArchive / Data Records for 2015-11-12
2015-11-11 November 2015 2015-11-13

Data Records for Thursday, 12 November 2015

Time	Temp	Chill	HIndex	Humid	Dewpt	 Wind 	HiWind	WindDir	Rain 	Barom
-----	----	-----	------	-----	-----	------	------	-------	-----	-----
00:00	51.3	51.3	51.3	74	43.3	1	4	90	0.01	29.587 
00:05	51.0	51.0	51.0	75	43.4	1	7	90	0.00	29.587 
00:10	51.1	51.1	51.1	76	43.8	3	10	90	0.00	29.587 
00:15	51.1	51.1	51.1	77	44.1	2	5	90	0.00	29.569 
00:20	51.1	51.1	51.1	79	44.8	2	7	112	0.00	29.569 
00:25	51.1	51.1	51.1	80	45.1	3	7	90	0.00	29.569 
00:30	51.0	51.0	51.0	82	45.7	3	9	90	0.00	29.537 
00:35	50.8	50.8	50.8	83	45.8	3	12	90	0.00	29.537 
00:40	50.7	50.7	50.7	84	46.0	2	7	90	0.00	29.537 
00:45	50.5	50.5	50.5	85	46.2	2	7	90	0.00	29.514 
00:50	50.4	50.4	50.4	85	46.1	2	7	68	0.00	29.514 
00:55	50.4	50.4	50.4	85	46.1	2	5	90	0.00	29.514 
01:00	50.4	50.4	50.4	85	46.1	2	7	90	0.00	29.499 
01:05	50.4	50.4	50.4	85	46.1	3	10	135	0.00	29.499 
01:10	50.5	50.5	50.5	85	46.2	2	10	90	0.00	29.499 
01:15	50.7	50.7	50.7	84	46.0	2	5	68	0.00	29.473 
01:20	50.8	50.8	50.8	84	46.1	3	6	112	0.00	29.473 
01:25	51.1	51.1	51.1	84	46.4	2	11	90	0.00	29.473 
01:30	51.3	51.3	51.3	84	46.6	2	9	90	0.00	29.460 
01:35	51.4	51.4	51.4	84	46.7	2	6	292	0.00	29.460 
01:40	51.6	51.6	51.6	84	46.9	3	10	112	0.00	29.460 
01:45	51.7	51.7	51.7	84	47.0	3	9	112	0.00	29.462 
01:50	51.7	51.7	51.7	84	47.0	2	6	112	0.00	29.462 
01:55	51.7	51.7	51.7	84	47.0	3	11	112	0.00	29.462 
02:00	51.7	51.7	51.7	84	47.0	2	10	90	0.00	29.459 
02:05	51.7	51.7	51.7	84	47.0	1	5	112	0.00	29.459 
02:10	51.9	51.9	51.9	84	47.2	2	5	90	0.00	29.459 
02:15	52.0	52.0	52.0	85	47.6	2	7	112	0.00	29.444 
02:20	52.2	52.2	52.2	85	47.8	3	9	90	0.00	29.444 
02:25	52.2	52.2	52.2	85	47.8	2	6	112	0.00	29.444 
02:30	52.3	52.3	52.3	85	47.9	2	7	90	0.00	29.432 
02:35	52.5	52.5	52.5	85	48.1	2	6	112	0.00	29.432 
02:40	52.5	52.5	52.5	85	48.1	2	5	112	0.00	29.432 
02:45	52.6	52.6	52.6	85	48.2	2	10	90	0.00	29.418 
02:50	52.8	52.8	52.8	86	48.7	1	11	112	0.00	29.418 
02:55	53.1	53.1	53.1	86	49.0	2	7	90	0.00	29.418 
03:00	53.5	53.5	53.5	86	49.4	2	7	248	0.00	29.424 
03:05	53.8	53.8	53.8	86	49.7	2	12	68	0.00	29.424 
03:10	53.8	53.8	53.8	87	50.0	1	4	248	0.00	29.424 
03:15	53.9	53.9	53.9	88	50.4	1	6	45	0.00	29.411 
03:20	54.2	54.2	54.2	88	50.7	2	6	68	0.00	29.411 
03:25	54.2	54.2	54.2	88	50.7	1	5	135	0.00	29.411 
03:30	54.2	54.2	54.2	88	50.7	1	7	0	0.00	29.398 
03:35	54.2	54.2	54.2	88	50.7	1	5	90	0.00	29.398 
03:40	54.2	54.2	54.2	88	50.7	2	6	90	0.00	29.398 
03:45	54.1	54.1	54.1	88	50.6	2	6	68	0.00	29.391 
03:50	54.1	54.1	54.1	88	50.6	2	9	90	0.00	29.391 
03:55	53.9	53.9	53.9	88	50.4	1	5	135	0.00	29.391 
04:00	53.8	53.8	53.8	88	50.3	1	4	90	0.00	29.370 
04:05	53.6	53.6	53.6	89	50.4	1	4	90	0.00	29.370 
04:10	53.6	53.6	53.6	89	50.4	1	4	112	0.00	29.370 
04:15	53.6	53.6	53.6	89	50.4	1	6	90	0.01	29.357 
04:20	53.6	53.6	53.6	90	50.7	1	3	90	0.00	29.357 
04:25	53.6	53.6	53.6	90	50.7	1	3	90	0.00	29.357 
04:30	53.8	53.8	53.8	90	50.9	1	4	90	0.00	29.345 
04:35	53.8	53.8	53.8	90	50.9	1	5	90	0.00	29.345 
04:40	53.9	53.9	53.9	90	51.0	1	4	90	0.00	29.345 
04:45	53.9	53.9	53.9	90	51.0	1	5	90	0.00	29.333 
04:50	54.1	54.1	54.1	90	51.2	1	7	90	0.00	29.333 
04:55	54.2	54.2	54.2	90	51.3	0	3	45	0.00	29.333 
05:00	54.4	54.4	54.4	90	51.5	1	6	68	0.00	29.332 
05:05	54.5	54.5	54.5	90	51.6	1	7	112	0.00	29.332 
05:10	55.0	55.0	55.0	90	52.1	2	5	90	0.00	29.332 
05:15	55.3	55.3	55.3	89	52.1	1	4	68	0.00	29.335 
05:20	55.3	55.3	55.3	89	52.1	1	6	68	0.00	29.335 
05:25	55.4	55.4	55.4	89	52.2	1	5	68	0.00	29.335 
05:30	55.4	55.4	55.4	89	52.2	0	3	248	0.00	29.329 
05:35	55.7	55.7	55.7	89	52.5	2	7	248	0.00	29.329 
05:40	54.5	54.5	54.5	78	47.8	6	14	270	0.00	29.329 
05:45	53.5	53.5	53.5	71	44.3	4	13	248	0.00	29.369 
05:50	52.9	52.9	52.9	70	43.4	4	11	248	0.00	29.369 
05:55	52.3	52.3	52.3	70	42.8	4	10	248	0.00	29.369 
06:00	51.6	51.6	51.6	71	42.5	4	10	248	0.00	29.373 
06:05	51.1	51.1	51.1	72	42.4	3	10	248	0.00	29.373 
06:10	50.7	50.7	50.7	73	42.4	3	9	248	0.00	29.373 
06:15	50.4	50.4	50.4	73	42.1	3	8	248	0.00	29.384 
06:20	50.2	50.2	50.2	73	41.9	4	16	248	0.00	29.384 
06:25	50.1	50.1	50.1	73	41.8	4	12	248	0.00	29.384 
06:30	49.9	48.8	49.9	73	41.6	4	11	248	0.00	29.391 
06:35	49.8	47.4	49.8	70	40.4	6	11	248	0.00	29.391 
06:40	49.8	48.6	49.8	70	40.4	4	10	248	0.00	29.391 
06:45	49.6	48.4	49.6	69	39.9	4	11	248	0.00	29.404 
06:50	49.5	48.3	49.5	69	39.8	4	15	248	0.00	29.404 
06:55	49.2	47.3	49.2	68	39.1	5	18	248	0.00	29.404 
07:00	49.1	47.2	49.1	68	39.0	5	11	270	0.00	29.425 
07:05	48.9	48.9	48.9	69	39.2	3	7	248	0.00	29.425 
07:10	48.8	46.8	48.8	68	38.7	5	11	248	0.00	29.425 
07:15	48.6	47.3	48.6	69	38.9	4	11	248	0.00	29.425 
07:20	48.5	47.1	48.5	69	38.8	4	12	248	0.00	29.425 
07:25	48.3	48.3	48.3	69	38.6	3	10	248	0.00	29.425 
07:30	48.2	45.5	48.2	68	38.1	6	15	248	0.00	29.436 
07:35	47.9	45.8	47.9	69	38.2	5	12	248	0.00	29.436 
07:40	47.7	45.5	47.7	69	38.0	5	13	248	0.00	29.436 
07:45	47.4	45.2	47.4	68	37.4	5	11	248	0.00	29.443 
07:50	47.3	45.8	47.3	69	37.7	4	12	270	0.00	29.443 
07:55	47.0	47.0	47.0	71	38.1	3	10	270	0.00	29.443 
08:00	46.8	44.5	46.8	71	37.9	5	12	248	0.00	29.456 
08:05	46.8	43.9	46.8	71	37.9	6	16	248	0.00	29.456 
08:10	46.7	44.3	46.7	71	37.8	5	15	248	0.00	29.456 
08:15	46.5	44.8	46.5	72	38.0	4	10	248	0.00	29.456 
08:20	46.4	43.4	46.4	72	37.9	6	17	270	0.00	29.456 
08:25	46.4	46.4	46.4	73	38.2	3	12	270	0.00	29.456 
08:30	46.4	44.7	46.4	73	38.2	4	10	248	0.00	29.455 
08:35	46.2	44.5	46.2	74	38.4	4	11	248	0.00	29.455 
08:40	46.1	46.1	46.1	75	38.6	3	10	248	0.00	29.455 
08:45	45.8	45.8	45.8	78	39.3	2	7	248	0.00	29.458 
08:50	45.5	45.5	45.5	78	39.0	1	5	248	0.00	29.458 
08:55	45.4	45.4	45.4	78	38.9	3	9	248	0.00	29.458 
09:00	45.5	45.5	45.5	77	38.7	3	9	248	0.00	29.457 
09:05	45.7	45.7	45.7	76	38.6	3	10	248	0.00	29.457 
09:10	45.8	44.0	45.8	75	38.3	4	14	248	0.00	29.457 
09:15	46.0	43.5	46.0	74	38.2	5	13	248	0.00	29.465 
09:20	46.1	44.4	46.1	74	38.3	4	13	248	0.00	29.465 
09:25	46.2	44.5	46.2	74	38.4	4	15	270	0.00	29.465 
09:30	46.2	44.5	46.2	74	38.4	4	13	248	0.00	29.471 
09:35	46.4	43.4	46.4	74	38.6	6	13	248	0.00	29.471 
09:40	46.4	44.0	46.4	75	38.9	5	13	248	0.00	29.471 
09:45	46.4	44.0	46.4	75	38.9	5	11	248	0.00	29.474 
09:50	46.4	44.7	46.4	76	39.3	4	11	248	0.00	29.474 
09:55	46.4	44.7	46.4	76	39.3	4	11	270	0.00	29.474 
10:00	46.5	46.5	46.5	76	39.3	3	9	248	0.00	29.472 
10:05	46.5	44.8	46.5	76	39.3	4	10	248	0.00	29.472 
10:10	46.5	44.1	46.5	77	39.7	5	13	248	0.00	29.472 
10:15	46.4	44.0	46.4	78	39.9	5	16	248	0.00	29.480 
10:20	46.4	43.4	46.4	78	39.9	6	13	248	0.00	29.480 
10:25	46.4	43.4	46.4	77	39.6	6	17	248	0.00	29.480 
10:30	46.4	44.0	46.4	77	39.6	5	15	248	0.00	29.487 
10:35	46.4	44.0	46.4	77	39.6	5	12	248	0.00	29.487 
10:40	46.4	44.0	46.4	79	40.2	5	13	248	0.00	29.487 
10:45	46.1	43.6	46.1	80	40.3	5	15	248	0.00	29.488 
10:50	46.0	44.2	46.0	82	40.8	4	12	248	0.00	29.488 
10:55	45.7	43.2	45.7	83	40.8	5	13	248	0.00	29.488 
11:00	45.4	43.6	45.4	84	40.9	4	10	248	0.00	29.491 
11:05	45.1	42.5	45.1	85	40.9	5	13	248	0.00	29.491 
11:10	45.1	43.2	45.1	86	41.2	4	11	248	0.00	29.491 
11:15	44.9	43.0	44.9	86	41.0	4	10	248	0.00	29.504 
11:20	44.9	43.0	44.9	86	41.0	4	14	248	0.00	29.504 
11:25	44.9	43.0	44.9	86	41.0	4	11	248	0.00	29.504 
11:30	44.9	42.2	44.9	85	40.7	5	13	248	0.00	29.504 
11:35	44.9	42.2	44.9	85	40.7	5	13	248	0.00	29.504 
11:40	44.9	43.0	44.9	85	40.7	4	13	248	0.00	29.504 
11:45	44.9	42.2	44.9	84	40.4	5	12	248	0.00	29.503 
11:50	45.1	43.2	45.1	84	40.6	4	11	248	0.00	29.503 
11:55	45.1	41.8	45.1	83	40.3	6	15	248	0.00	29.503 
12:00	45.1	41.8	45.1	83	40.3	6	17	248	0.00	29.513 
12:05	45.1	41.8	45.1	84	40.6	6	17	270	0.00	29.513 
12:10	44.9	43.0	44.9	84	40.4	4	13	248	0.00	29.513 
12:15	44.9	44.9	44.9	84	40.4	3	10	248	0.00	29.521 
12:20	44.9	43.0	44.9	84	40.4	4	12	248	0.00	29.521 
12:25	45.1	43.2	45.1	84	40.6	4	13	248	0.00	29.521 
12:30	45.1	45.1	45.1	84	40.6	3	7	248	0.00	29.523 
12:35	45.2	43.3	45.2	84	40.7	4	10	248	0.00	29.523 
12:40	45.1	43.2	45.1	84	40.6	4	11	248	0.00	29.523 
12:45	45.1	43.2	45.1	85	40.9	4	9	248	0.00	29.529 
12:50	44.9	44.9	44.9	86	41.0	3	7	248	0.00	29.529 
12:55	44.9	43.0	44.9	86	41.0	4	12	248	0.00	29.529 
13:00	44.8	42.1	44.8	86	40.9	5	12	248	0.00	29.536 
13:05	44.8	42.9	44.8	86	40.9	4	12	248	0.00	29.536 
13:10	44.9	42.2	44.9	87	41.3	5	11	248	0.00	29.536 
13:15	44.9	43.0	44.9	87	41.3	4	7	248	0.00	29.543 
13:20	44.8	42.9	44.8	87	41.2	4	10	248	0.00	29.543 
13:25	44.8	42.9	44.8	88	41.5	4	11	248	0.00	29.543 
13:30	44.6	42.6	44.6	88	41.3	4	12	248	0.00	29.547 
13:35	44.6	42.6	44.6	88	41.3	4	10	248	0.00	29.547 
13:40	44.6	42.6	44.6	88	41.3	4	9	248	0.00	29.547 
13:45	44.6	42.6	44.6	88	41.3	4	14	248	0.00	29.552 
13:50	44.6	42.6	44.6	88	41.3	4	12	248	0.00	29.552 
13:55	44.8	42.9	44.8	88	41.5	4	10	248	0.00	29.552 
14:00	44.8	44.8	44.8	88	41.5	3	9	248	0.00	29.559 
14:05	44.8	44.8	44.8	89	41.8	3	7	248	0.00	29.559 
14:10	44.8	42.1	44.8	88	41.5	5	11	248	0.00	29.559 
14:15	44.8	42.9	44.8	88	41.5	4	10	248	0.00	29.561 
14:20	44.8	42.9	44.8	88	41.5	4	10	248	0.00	29.561 
14:25	44.8	42.9	44.8	88	41.5	4	9	248	0.00	29.561 
14:30	44.8	42.1	44.8	88	41.5	5	10	248	0.00	29.570 
14:35	44.9	42.2	44.9	87	41.3	5	11	270	0.00	29.570 
14:40	45.1	43.2	45.1	86	41.2	4	11	270	0.00	29.570 
14:45	45.2	42.6	45.2	86	41.3	5	13	248	0.00	29.584 
14:50	45.4	42.8	45.4	85	41.2	5	20	248	0.00	29.584 
14:55	45.4	42.2	45.4	84	40.9	6	15	248	0.00	29.584 
15:00	45.4	43.6	45.4	84	40.9	4	12	270	0.00	29.594 
15:05	45.5	43.7	45.5	84	41.0	4	10	248	0.00	29.594 
15:10	45.4	45.4	45.4	84	40.9	3	9	248	0.00	29.594 
15:15	45.4	42.2	45.4	84	40.9	6	13	248	0.00	29.604 
15:20	45.2	42.6	45.2	84	40.7	5	12	248	0.00	29.604 
15:25	45.1	43.2	45.1	85	40.9	4	7	248	0.00	29.604 
15:30	44.9	44.9	44.9	86	41.0	3	7	248	0.00	29.614 
15:35	44.8	42.1	44.8	86	40.9	5	11	270	0.00	29.614 
15:40	44.8	42.1	44.8	86	40.9	5	10	248	0.00	29.614 
15:45	44.8	42.9	44.8	86	40.9	4	12	248	0.00	29.628 
15:50	44.6	42.6	44.6	86	40.7	4	12	248	0.00	29.628 
15:55	44.6	42.6	44.6	86	40.7	4	11	248	0.00	29.628 
16:00	44.6	42.6	44.6	86	40.7	4	16	248	0.00	29.632 
16:05	44.6	42.6	44.6	86	40.7	4	16	270	0.00	29.632 
16:10	44.8	42.1	44.8	85	40.6	5	13	248	0.00	29.632 
16:15	44.9	42.2	44.9	84	40.4	5	13	270	0.00	29.642 
16:20	45.1	42.5	45.1	83	40.3	5	11	248	0.00	29.642 
16:25	45.2	42.6	45.2	82	40.0	5	10	248	0.00	29.642 
16:30	45.4	42.8	45.4	82	40.2	5	9	270	0.00	29.646 
16:35	45.5	43.7	45.5	82	40.3	4	12	270	0.00	29.646 
16:40	45.5	43.7	45.5	81	40.0	4	13	270	0.00	29.646 
16:45	45.5	42.9	45.5	81	40.0	5	12	248	0.00	29.658 
16:50	45.4	42.2	45.4	81	39.9	6	15	248	0.00	29.658 
16:55	45.4	42.2	45.4	81	39.9	6	13	248	0.00	29.658 
17:00	45.2	42.0	45.2	82	40.0	6	13	248	0.00	29.663 
17:05	45.2	42.6	45.2	82	40.0	5	11	248	0.00	29.663 
17:10	45.2	42.6	45.2	83	40.3	5	13	248	0.00	29.663 
17:15	45.2	43.3	45.2	83	40.3	4	10	248	0.00	29.675 
17:20	45.1	43.2	45.1	84	40.6	4	7	248	0.00	29.675 
17:25	45.1	45.1	45.1	84	40.6	3	9	270	0.00	29.675 
17:30	44.9	43.0	44.9	84	40.4	4	7	248	0.00	29.681 
17:35	44.9	42.2	44.9	84	40.4	5	11	270	0.00	29.681 
17:40	45.1	42.5	45.1	84	40.6	5	11	248	0.00	29.681 
17:45	45.2	43.3	45.2	83	40.3	4	8	270	0.00	29.691 
17:50	45.4	42.8	45.4	83	40.5	5	10	270	0.00	29.691 
17:55	45.5	43.7	45.5	83	40.6	4	10	270	0.00	29.691 
18:00	45.7	43.2	45.7	82	40.5	5	12	248	0.00	29.697 
18:05	45.8	43.3	45.8	82	40.6	5	11	270	0.00	29.697 
18:10	45.8	45.8	45.8	82	40.6	3	10	248	0.00	29.697 
18:15	45.8	44.0	45.8	81	40.3	4	7	270	0.00	29.703 
18:20	46.0	46.0	46.0	81	40.5	3	7	270	0.00	29.703 
18:25	46.2	43.8	46.2	80	40.4	5	10	270	0.00	29.703 
18:30	46.4	46.4	46.4	79	40.2	3	9	270	0.00	29.711 
18:35	46.5	44.8	46.5	79	40.3	4	8	270	0.00	29.711 
18:40	46.5	44.8	46.5	78	40.0	4	7	270	0.00	29.711 
18:45	46.7	46.7	46.7	78	40.2	3	11	270	0.00	29.716 
18:50	46.8	46.8	46.8	78	40.3	3	7	270	0.00	29.716 
18:55	47.0	45.4	47.0	77	40.2	4	10	270	0.00	29.716 
19:00	47.1	44.8	47.1	76	39.9	5	10	270	0.00	29.719 
19:05	47.3	45.0	47.3	76	40.1	5	11	270	0.00	29.719 
19:10	47.3	45.8	47.3	76	40.1	4	11	270	0.00	29.719 
19:15	47.3	45.8	47.3	76	40.1	4	10	270	0.00	29.730 
19:20	47.3	45.8	47.3	76	40.1	4	9	270	0.00	29.730 
19:25	47.3	47.3	47.3	77	40.5	2	5	270	0.00	29.730 
19:30	47.3	45.8	47.3	77	40.5	4	9	248	0.00	29.728 
19:35	47.4	45.9	47.4	77	40.6	4	7	270	0.00	29.728 
19:40	47.4	47.4	47.4	77	40.6	2	7	248	0.00	29.728 
19:45	47.4	47.4	47.4	77	40.6	3	7	270	0.00	29.735 
19:50	47.6	47.6	47.6	77	40.8	3	6	248	0.00	29.735 
19:55	47.6	47.6	47.6	76	40.4	3	10	248	0.00	29.735 
20:00	47.7	47.7	47.7	76	40.5	2	7	248	0.00	29.741 
20:05	47.9	46.4	47.9	74	40.0	4	7	248	0.00	29.741 
20:10	47.9	47.9	47.9	74	40.0	3	7	248	0.00	29.741 
20:15	48.0	48.0	48.0	73	39.8	3	6	270	0.00	29.741 
20:20	48.0	46.6	48.0	72	39.4	4	8	270	0.00	29.741 
20:25	48.0	48.0	48.0	72	39.4	3	7	248	0.00	29.741 
20:30	48.2	46.1	48.2	69	38.5	5	11	270	0.00	29.742 
20:35	48.2	46.8	48.2	69	38.5	4	9	248	0.00	29.742 
20:40	48.2	48.2	48.2	68	38.1	3	9	270	0.00	29.742 
20:45	48.2	48.2	48.2	69	38.5	3	10	270	0.00	29.745 
20:50	48.0	46.6	48.0	68	37.9	4	6	270	0.00	29.745 
20:55	48.0	48.0	48.0	69	38.3	3	9	270	0.00	29.745 
21:00	48.0	46.6	48.0	69	38.3	4	10	248	0.00	29.744 
21:05	47.9	46.4	47.9	68	37.9	4	8	248	0.00	29.744 
21:10	47.7	46.2	47.7	67	37.3	4	9	270	0.00	29.744 
21:15	47.7	46.2	47.7	66	36.9	4	11	270	0.00	29.746 
21:20	47.7	47.7	47.7	66	36.9	3	6	248	0.00	29.746 
21:25	47.6	47.6	47.6	67	37.2	3	5	248	0.00	29.746 
21:30	47.4	47.4	47.4	68	37.4	3	8	248	0.00	29.753 
21:35	47.3	47.3	47.3	68	37.3	3	6	248	0.00	29.753 
21:40	47.1	47.1	47.1	68	37.1	3	6	248	0.00	29.753 
21:45	47.0	47.0	47.0	68	37.0	3	7	248	0.00	29.759 
21:50	47.0	47.0	47.0	68	37.0	3	6	248	0.00	29.759 
21:55	46.8	45.2	46.8	67	36.4	4	10	270	0.00	29.759 
22:00	47.0	45.4	47.0	65	35.9	4	10	270	0.00	29.759 
22:05	47.0	45.4	47.0	65	35.9	4	10	270	0.00	29.759 
22:10	47.0	45.4	47.0	65	35.9	4	9	248	0.00	29.759 
22:15	47.0	44.7	47.0	64	35.5	5	10	270	0.00	29.765 
22:20	46.8	46.8	46.8	64	35.3	3	6	292	0.00	29.765 
22:25	46.7	45.1	46.7	63	34.8	4	11	270	0.00	29.765 
22:30	46.7	44.3	46.7	62	34.4	5	10	270	0.00	29.764 
22:35	46.5	43.0	46.5	60	33.4	7	14	270	0.00	29.764 
22:40	46.5	43.5	46.5	60	33.4	6	14	270	0.00	29.764 
22:45	46.5	43.5	46.5	60	33.4	6	13	270	0.00	29.769 
22:50	46.4	46.4	46.4	62	34.1	3	7	270	0.00	29.769 
22:55	46.2	44.5	46.2	61	33.5	4	7	270	0.00	29.769 
23:00	45.8	43.3	45.8	61	33.1	5	10	270	0.00	29.772 
23:05	45.7	42.5	45.7	61	33.0	6	11	270	0.00	29.772 
23:10	45.5	43.7	45.5	62	33.2	4	7	270	0.00	29.772 
23:15	45.4	43.6	45.4	62	33.2	4	10	270	0.00	29.769 
23:20	45.4	43.6	45.4	62	33.2	4	7	270	0.00	29.769 
23:25	45.4	45.4	45.4	63	33.6	3	7	248	0.00	29.769 
23:30	45.2	45.2	45.2	62	33.0	3	7	248	0.00	29.777 
23:35	44.8	42.9	44.8	59	31.4	4	7	270	0.00	29.777 
23:40	44.3	42.3	44.3	59	30.9	4	10	270	0.00	29.777 
23:45	44.1	44.1	44.1	60	31.1	3	11	248	0.00	29.780 
23:50	43.8	41.7	43.8	61	31.2	4	7	270	0.00	29.780 
23:55	43.6	41.5	43.6	61	31.0	4	9	270	0.00	29.780 

CoCoRaHS
IN-AL-39
A2 Web Hosting
Creative Commons License
GoDaddy
search engine by freefind advanced

loaded 2018-11-20 02:37:35 • last modified 2010-11-18 10:43:29
Privacy PolicyDisclaimer
• wx.awcolley.com is powered by PmWiki v.2002016 •
• all content (unless otherwise noted) © 2018 A W Colley